createdAt,value
2022-08-29T00:00:51.138Z,100151.97
2022-08-29T00:03:21.458Z,100154.38
2022-08-29T00:05:51.503Z,100156.28
2022-08-29T00:08:21.295Z,100155.59
2022-08-29T00:10:50.156Z,100166.09
2022-08-29T00:16:35.937Z,100158.38
2022-08-29T00:19:06.315Z,100151.44
2022-08-29T00:21:35.072Z,100157.25
2022-08-29T00:24:04.444Z,100147.66
2022-08-29T00:26:33.320Z,100147.78
2022-08-29T00:29:02.215Z,100147.19
2022-08-29T00:31:30.953Z,100152.47
2022-08-29T00:33:59.855Z,100157.41
2022-08-29T00:36:30.618Z,100153.75
2022-08-29T00:38:59.892Z,100161.25
2022-08-29T00:41:28.754Z,100153.75
2022-08-29T00:43:57.646Z,100148.91
2022-08-29T00:46:53.163Z,100153.56
2022-08-29T00:49:36.838Z,100155.59
2022-08-29T00:52:19.320Z,100158.09
2022-08-29T00:54:54.945Z,100148.25
2022-08-29T00:57:27.736Z,100141.56
2022-08-29T00:59:57.017Z,100143.56
2022-08-29T01:02:26.504Z,100144.59
2022-08-29T01:04:55.423Z,100145.75
2022-08-29T01:07:25.841Z,100143.41
2022-08-29T01:09:55.401Z,100151.72
2022-08-29T01:12:23.994Z,100143.72
2022-08-29T01:14:55.530Z,100156.22
2022-08-29T01:17:31.083Z,100150.72
2022-08-29T01:20:12.219Z,100142.56
2022-08-29T01:23:01.142Z,100148.06
2022-08-29T01:25:37.358Z,100150.41
2022-08-29T01:28:14.743Z,100148.72
2022-08-29T01:31:01.453Z,100140.72
2022-08-29T01:33:44.715Z,100136.56
2022-08-29T01:36:19.341Z,100141.75
2022-08-29T01:38:48.077Z,100134.56
2022-08-29T01:41:22.812Z,100135.41
2022-08-29T01:43:55.091Z,100132.72
2022-08-29T01:46:27.666Z,100136.56
2022-08-29T01:48:56.967Z,100131.41
2022-08-29T01:51:26.261Z,100131.25
2022-08-29T01:53:55.423Z,100137.41
2022-08-29T01:56:28.793Z,100132.72
2022-08-29T01:59:00.906Z,100138.91
2022-08-29T02:01:37.129Z,100148.75
2022-08-29T02:04:08.329Z,100154.19
2022-08-29T02:06:38.440Z,100152.72
2022-08-29T02:09:08.204Z,100155.59
2022-08-29T02:11:41.556Z,100145.56
2022-08-29T02:14:19.024Z,100150.56
2022-08-29T02:16:48.963Z,100149.56
2022-08-29T02:19:19.236Z,100153.06
2022-08-29T02:21:48.195Z,100150.22
2022-08-29T02:24:26.340Z,100155.25
2022-08-29T02:26:58.783Z,100161.06
2022-08-29T02:29:37.030Z,100162.06
2022-08-29T02:32:09.043Z,100161.38
2022-08-29T02:34:38.903Z,100164.22
2022-08-29T02:37:08.293Z,100175.75
2022-08-29T02:39:36.945Z,100174.06
2022-08-29T02:42:07.693Z,100177.09
2022-08-29T02:44:36.525Z,100173.72
2022-08-29T02:47:05.541Z,100177.25
2022-08-29T02:49:34.521Z,100181.31
2022-08-29T02:52:06.668Z,100186.25
2022-08-29T02:54:35.874Z,100187.41
2022-08-29T02:57:07.032Z,100190.41
2022-08-29T02:59:35.981Z,100184.94
2022-08-29T03:02:05.157Z,100186.91
2022-08-29T03:04:34.280Z,100186.72
2022-08-29T03:07:02.961Z,100187.72
2022-08-29T03:09:31.632Z,100177.59
2022-08-29T03:12:00.534Z,100180.38
2022-08-29T03:14:30.613Z,100185.72
2022-08-29T03:16:59.283Z,100185.88
2022-08-29T03:19:28.263Z,100181.03
2022-08-29T03:21:57.074Z,100187.34
2022-08-29T03:24:26.991Z,100188.38
2022-08-29T03:26:57.176Z,100192.84
2022-08-29T03:29:27.706Z,100191.63
2022-08-29T03:31:58.778Z,100192.69
2022-08-29T03:34:28.784Z,100196.56
2022-08-29T03:36:58.252Z,100198.41
2022-08-29T03:39:27.473Z,100199.38
2022-08-29T03:41:56.801Z,100202.91
2022-08-29T03:44:26.188Z,100206.69
2022-08-29T03:46:58.501Z,100209.06
2022-08-29T03:49:27.587Z,100209.41
2022-08-29T03:51:56.502Z,100211.03
2022-08-29T03:54:25.287Z,100218.06
2022-08-29T03:56:55.673Z,100213.22
2022-08-29T03:59:24.758Z,100213.72
2022-08-29T04:01:53.423Z,100225.66
2022-08-29T04:04:41.298Z,100231.03
2022-08-29T04:07:13.246Z,100218.78
2022-08-29T04:09:43.121Z,100233.25
2022-08-29T04:12:13.774Z,100228.13
2022-08-29T04:14:43.004Z,100228.84
2022-08-29T04:17:12.401Z,100220.88
2022-08-29T04:19:42.354Z,100228.47
2022-08-29T04:22:11.205Z,100236.22
2022-08-29T04:24:39.798Z,100238.53
2022-08-29T04:27:08.602Z,100238.72
2022-08-29T04:29:38.331Z,100249.06
2022-08-29T04:32:07.273Z,100248.63
2022-08-29T04:34:35.922Z,100260.91
2022-08-29T04:37:06.116Z,100254.50
2022-08-29T04:39:35.919Z,100249.38
2022-08-29T04:42:05.092Z,100260.19
2022-08-29T04:44:34.553Z,100248.19
2022-08-29T04:47:03.148Z,100266.47
2022-08-29T04:49:31.815Z,100252.41
2022-08-29T04:52:00.651Z,100264.63
2022-08-29T04:54:30.660Z,100266.59
2022-08-29T04:57:03.618Z,100268.09
2022-08-29T04:59:34.789Z,100274.53
2022-08-29T05:02:03.836Z,100277.50
2022-08-29T05:04:32.555Z,100276.81
2022-08-29T05:07:01.364Z,100275.88
2022-08-29T05:09:32.051Z,100279.16
2022-08-29T05:12:00.669Z,100275.53
2022-08-29T05:14:29.505Z,100275.03
2022-08-29T05:16:58.261Z,100272.16
2022-08-29T05:19:26.982Z,100277.19
2022-08-29T05:22:03.237Z,100288.63
2022-08-29T05:24:37.264Z,100282.22
2022-08-29T05:27:10.048Z,100283.28
2022-08-29T05:29:41.200Z,100290.25
2022-08-29T05:32:12.447Z,100287.28
2022-08-29T05:34:42.955Z,100285.53
2022-08-29T05:37:16.896Z,100288.34
2022-08-29T05:39:48.381Z,100291.63
2022-08-29T05:42:22.115Z,100290.91
2022-08-29T05:44:52.456Z,100293.13
2022-08-29T05:47:22.885Z,100302.16
2022-08-29T05:49:51.946Z,100302.25
2022-08-29T05:52:22.105Z,100296.53
2022-08-29T05:54:52.473Z,100310.16
2022-08-29T05:57:24.702Z,100302.16
2022-08-29T05:59:55.199Z,100303.47
2022-08-29T06:02:25.386Z,100304.06
2022-08-29T06:04:54.253Z,100303.38
2022-08-29T06:07:23.412Z,100303.34
2022-08-29T06:09:53.895Z,100303.16
2022-08-29T06:12:27.241Z,100311.34
2022-08-29T06:14:55.859Z,100312.13
2022-08-29T06:17:42.889Z,100309.63
2022-08-29T06:20:13.169Z,100312.66
2022-08-29T06:22:42.591Z,100317.09
2022-08-29T06:25:37.293Z,100325.16
2022-08-29T06:28:01.724Z,100319.78
2022-08-29T06:30:34.368Z,100325.28
2022-08-29T06:33:04.146Z,100332.41
2022-08-29T06:35:32.755Z,100341.66
2022-08-29T06:38:01.345Z,100342.09
2022-08-29T06:40:31.604Z,100343.59
2022-08-29T06:43:00.401Z,100351.00
2022-08-29T06:45:29.131Z,100354.72
2022-08-29T06:47:57.935Z,100351.16
2022-08-29T06:50:28.451Z,100367.59
2022-08-29T06:53:05.418Z,100361.81
2022-08-29T06:55:44.907Z,100371.28
2022-08-29T06:58:15.950Z,100363.78
2022-08-29T07:00:49.531Z,100374.38
2022-08-29T07:03:19.223Z,100370.50
2022-08-29T07:05:53.574Z,100376.44
2022-08-29T07:08:23.788Z,100379.41
2022-08-29T07:10:54.010Z,100378.84
2022-08-29T07:13:22.781Z,100378.09
2022-08-29T07:15:52.108Z,100386.69
2022-08-29T07:18:21.569Z,100395.88
2022-08-29T07:20:50.719Z,100393.03
2022-08-29T07:23:19.301Z,100403.84
2022-08-29T07:25:48.314Z,100404.47
2022-08-29T07:28:18.446Z,100410.44
2022-08-29T07:30:47.107Z,100410.75
2022-08-29T07:33:16.223Z,100405.25
2022-08-29T07:35:45.058Z,100405.31
2022-08-29T07:38:13.814Z,100420.31
2022-08-29T07:40:43.275Z,100420.16
2022-08-29T07:43:15.435Z,100425.66
2022-08-29T07:45:48.123Z,100428.38
2022-08-29T07:48:21.090Z,100432.13
2022-08-29T07:50:51.716Z,100427.94
2022-08-29T07:53:20.968Z,100428.88
2022-08-29T07:55:49.552Z,100445.56
2022-08-29T07:58:18.368Z,100439.94
2022-08-29T08:00:48.314Z,100441.94
2022-08-29T08:03:16.997Z,100440.47
2022-08-29T08:05:45.819Z,100445.75
2022-08-29T08:08:15.614Z,100448.84
2022-08-29T08:10:47.840Z,100460.03
2022-08-29T08:13:20.089Z,100451.16
2022-08-29T08:15:50.215Z,100459.69
2022-08-29T08:18:18.836Z,100456.72
2022-08-29T08:20:48.506Z,100456.88
2022-08-29T08:23:17.903Z,100472.06
2022-08-29T08:25:46.815Z,100465.19
2022-08-29T08:28:17.259Z,100460.56
2022-08-29T08:30:46.161Z,100475.06
2022-08-29T08:33:16.721Z,100474.09
2022-08-29T08:35:46.962Z,100472.25
2022-08-29T08:38:16.997Z,100471.06
2022-08-29T08:41:04.460Z,100475.41
2022-08-29T08:43:53.411Z,100474.41
2022-08-29T08:46:33.301Z,100475.75
2022-08-29T08:49:10.444Z,100476.75
2022-08-29T08:51:44.396Z,100473.25
2022-08-29T08:54:21.241Z,100478.06
2022-08-29T08:57:01.363Z,100482.38
2022-08-29T08:59:39.536Z,100463.69
2022-08-29T09:02:35.471Z,100469.31
2022-08-29T09:05:29.643Z,100478.66
2022-08-29T09:08:11.037Z,100488.06
2022-08-29T09:10:49.709Z,100484.06
2022-08-29T09:13:38.621Z,100486.69
2022-08-29T09:16:18.123Z,100480.50
2022-08-29T09:18:52.671Z,100493.91
2022-08-29T09:21:41.670Z,100486.69
2022-08-29T09:24:22.051Z,100490.16
2022-08-29T09:26:50.711Z,100490.41
2022-08-29T09:29:21.101Z,100500.38
2022-08-29T09:32:12.085Z,100493.53
2022-08-29T09:37:36.880Z,100505.28
2022-08-29T09:40:11.421Z,100497.06
2022-08-29T09:42:44.557Z,100504.81
2022-08-29T09:45:20.591Z,100499.34
2022-08-29T09:47:49.295Z,100493.97
2022-08-29T09:50:24.819Z,100489.81
2022-08-29T09:52:59.573Z,100495.41
2022-08-29T09:55:35.122Z,100485.47
2022-08-29T09:58:07.927Z,100496.22
2022-08-29T10:00:40.398Z,100492.94
2022-08-29T10:03:22.423Z,100495.06
2022-08-29T10:06:09.365Z,100496.25
2022-08-29T10:08:43.796Z,100503.56
2022-08-29T10:11:34.164Z,100492.91
2022-08-29T10:14:09.786Z,100506.53
2022-08-29T10:16:52.721Z,100496.56
2022-08-29T10:19:32.975Z,100510.81
2022-08-29T10:22:18.891Z,100501.25
2022-08-29T10:25:01.616Z,100497.75
2022-08-29T10:27:43.752Z,100494.59
2022-08-29T10:30:17.324Z,100503.75
2022-08-29T10:33:10.506Z,100493.72
2022-08-29T10:35:53.705Z,100489.03
2022-08-29T10:38:45.231Z,100498.31
2022-08-29T10:41:32.630Z,100493.41
2022-08-29T10:44:26.323Z,100501.75
2022-08-29T10:47:22.662Z,100495.31
2022-08-29T10:50:21.861Z,100505.28
2022-08-29T10:53:11.534Z,100506.28
2022-08-29T10:55:51.036Z,100501.25
2022-08-29T10:58:47.500Z,100516.78
2022-08-29T11:01:28.449Z,100506.63
2022-08-29T11:04:17.325Z,100511.00
2022-08-29T11:06:56.965Z,100511.38
2022-08-29T11:09:32.545Z,100516.50
2022-08-29T11:12:11.021Z,100502.97
2022-08-29T11:14:57.624Z,100515.44
2022-08-29T11:17:35.905Z,100508.22
2022-08-29T11:20:13.688Z,100507.97
2022-08-29T11:22:50.051Z,100511.03
2022-08-29T11:25:21.907Z,100504.00
2022-08-29T11:28:04.126Z,100507.97
2022-08-29T11:30:47.933Z,100497.56
2022-08-29T11:33:33.304Z,100503.03
2022-08-29T11:36:33.687Z,100505.69
2022-08-29T11:39:47.410Z,100508.25
2022-08-29T11:45:22.658Z,100503.28
2022-08-29T11:48:19.464Z,100515.41
2022-08-29T11:50:49.439Z,100521.38
2022-08-29T11:53:34.112Z,100509.72
2022-08-29T11:56:28.506Z,100515.50
2022-08-29T11:59:00.159Z,100517.66
2022-08-29T12:02:00.680Z,100522.84
2022-08-29T12:04:56.954Z,100513.50
2022-08-29T12:07:37.507Z,100515.19
2022-08-29T12:10:12.039Z,100513.34
2022-08-29T12:12:46.242Z,100522.44
2022-08-29T12:16:08.536Z,100532.72
2022-08-29T12:18:48.907Z,100520.03
2022-08-29T12:21:47.167Z,100528.19
2022-08-29T12:24:43.095Z,100519.00
2022-08-29T12:28:05.995Z,100517.44
2022-08-29T12:30:41.721Z,100527.44
2022-08-29T12:33:28.831Z,100518.16
2022-08-29T12:36:26.031Z,100525.34
2022-08-29T12:39:19.449Z,100521.28
2022-08-29T12:42:18.456Z,100524.72
2022-08-29T12:45:00.579Z,100518.97
2022-08-29T12:47:36.919Z,100538.41
2022-08-29T12:50:15.496Z,100529.59
2022-08-29T12:52:44.534Z,100538.19
2022-08-29T12:55:27.659Z,100529.94
2022-08-29T12:57:59.141Z,100522.63
2022-08-29T13:00:32.337Z,100530.50
2022-08-29T13:03:09.485Z,100534.72
2022-08-29T13:05:44.865Z,100530.72
2022-08-29T13:08:17.916Z,100530.47
2022-08-29T13:10:56.478Z,100529.41
2022-08-29T13:13:27.606Z,100520.41
2022-08-29T13:16:02.260Z,100534.78
2022-08-29T13:18:44.313Z,100532.94
2022-08-29T13:21:25.774Z,100527.06
2022-08-29T13:24:05.492Z,100524.25
2022-08-29T13:26:35.742Z,100532.81
2022-08-29T13:29:27.955Z,100530.50
2022-08-29T13:32:24.092Z,100529.09
2022-08-29T13:35:18.032Z,100530.66
2022-08-29T13:38:08.209Z,100532.91
2022-08-29T13:40:44.657Z,100521.88
2022-08-29T13:43:34.253Z,100520.22
2022-08-29T13:46:15.448Z,100523.72
2022-08-29T13:48:46.329Z,100520.44
2022-08-29T13:51:15.529Z,100516.16
2022-08-29T13:53:45.521Z,100506.50
2022-08-29T13:56:27.801Z,100514.91
2022-08-29T13:58:59.552Z,100505.41
2022-08-29T14:01:29.800Z,100509.34
2022-08-29T14:04:15.351Z,100509.47
2022-08-29T14:06:50.266Z,100515.59
2022-08-29T14:09:25.528Z,100518.47
2022-08-29T14:11:54.132Z,100518.72
2022-08-29T14:14:23.012Z,100514.63
2022-08-29T14:16:53.732Z,100521.19
2022-08-29T14:19:24.212Z,100512.13
2022-08-29T14:21:54.521Z,100511.22
2022-08-29T14:24:27.330Z,100514.25
2022-08-29T14:27:01.104Z,100515.28
2022-08-29T14:29:31.367Z,100526.06
2022-08-29T14:32:02.911Z,100522.13
2022-08-29T14:34:33.616Z,100525.50
2022-08-29T14:37:03.074Z,100513.47
2022-08-29T14:39:31.901Z,100507.63
2022-08-29T14:42:00.562Z,100508.50
2022-08-29T14:44:29.458Z,100504.34
2022-08-29T14:46:58.112Z,100507.31
2022-08-29T14:49:27.113Z,100507.97
2022-08-29T14:51:57.428Z,100508.00
2022-08-29T14:54:26.082Z,100510.22
2022-08-29T14:56:54.795Z,100512.16
2022-08-29T14:59:25.624Z,100516.31
2022-08-29T15:01:55.498Z,100512.09
2022-08-29T15:04:36.009Z,100510.88
2022-08-29T15:07:13.581Z,100504.28
2022-08-29T15:09:44.050Z,100504.63
2022-08-29T15:12:14.257Z,100497.63
2022-08-29T15:14:43.340Z,100504.09
2022-08-29T15:17:13.521Z,100502.38
2022-08-29T15:20:31.809Z,100513.34
2022-08-29T15:22:32.811Z,100513.75
2022-08-29T15:25:01.831Z,100511.50
2022-08-29T15:27:32.143Z,100506.16
2022-08-29T15:30:01.176Z,100497.22
2022-08-29T15:32:39.131Z,100496.13
2022-08-29T15:35:15.138Z,100494.16
2022-08-29T15:37:44.290Z,100497.47
2022-08-29T15:40:15.148Z,100503.19
2022-08-29T15:42:45.329Z,100494.31
2022-08-29T15:45:14.217Z,100496.94
2022-08-29T15:47:46.237Z,100489.16
2022-08-29T15:50:16.192Z,100496.31
2022-08-29T15:52:45.124Z,100501.88
2022-08-29T15:55:14.014Z,100496.13
2022-08-29T15:57:51.725Z,100489.41
2022-08-29T16:00:29.701Z,100494.25
2022-08-29T16:03:02.837Z,100491.81
2022-08-29T16:05:33.147Z,100499.31
2022-08-29T16:08:03.410Z,100497.66
2022-08-29T16:10:33.309Z,100497.44
2022-08-29T16:13:02.166Z,100495.22
2022-08-29T16:15:31.791Z,100488.09
2022-08-29T16:18:03.654Z,100502.72
2022-08-29T16:20:32.974Z,100490.78
2022-08-29T16:23:02.941Z,100493.88
2022-08-29T16:25:33.496Z,100492.06
2022-08-29T16:28:06.083Z,100492.47
2022-08-29T16:30:44.516Z,100497.81
2022-08-29T16:33:16.810Z,100493.50
2022-08-29T16:35:45.552Z,100498.31
2022-08-29T16:38:14.335Z,100481.53
2022-08-29T16:40:43.419Z,100491.63
2022-08-29T16:43:12.590Z,100495.47
2022-08-29T16:45:41.303Z,100490.69
2022-08-29T16:48:10.818Z,100495.56
2022-08-29T16:50:46.219Z,100490.19
2022-08-29T16:53:15.907Z,100494.75
2022-08-29T16:55:44.586Z,100506.75
2022-08-29T16:58:30.601Z,100513.25
2022-08-29T17:01:00.248Z,100507.00
2022-08-29T17:03:29.013Z,100504.09
2022-08-29T17:05:59.285Z,100505.66
2022-08-29T17:08:26.902Z,100502.66
2022-08-29T17:10:54.485Z,100514.50
2022-08-29T17:13:23.738Z,100515.97
2022-08-29T17:15:52.027Z,100514.94
2022-08-29T17:18:20.705Z,100520.47
2022-08-29T17:20:49.655Z,100522.84
2022-08-29T17:23:20.024Z,100514.81
2022-08-29T17:25:48.797Z,100515.84
2022-08-29T17:28:18.911Z,100515.84
2022-08-29T17:30:48.963Z,100512.00
2022-08-29T17:33:18.292Z,100512.50
2022-08-29T17:35:48.714Z,100520.31
2022-08-29T17:38:19.295Z,100517.09
2022-08-29T17:40:49.492Z,100514.22
2022-08-29T17:43:20.944Z,100520.69
2022-08-29T17:45:50.014Z,100519.50
2022-08-29T17:48:19.468Z,100520.59
2022-08-29T17:50:48.967Z,100521.88
2022-08-29T17:53:20.666Z,100522.50
2022-08-29T17:55:51.176Z,100522.47
2022-08-29T17:58:22.306Z,100521.75
2022-08-29T18:00:52.064Z,100533.06
2022-08-29T18:03:20.944Z,100528.03
2022-08-29T18:05:49.698Z,100525.13
2022-08-29T18:08:19.650Z,100534.03
2022-08-29T18:10:48.467Z,100534.09
2022-08-29T18:13:21.438Z,100535.50
2022-08-29T18:15:52.544Z,100534.75
2022-08-29T18:18:22.068Z,100540.38
2022-08-29T18:20:51.002Z,100542.84
2022-08-29T18:23:21.277Z,100539.63
2022-08-29T18:25:49.991Z,100539.13
2022-08-29T18:28:19.118Z,100538.59
2022-08-29T18:30:48.241Z,100551.63
2022-08-29T18:33:17.236Z,100555.72
2022-08-29T18:35:46.170Z,100557.16
2022-08-29T18:38:15.834Z,100557.25
2022-08-29T18:40:46.721Z,100555.72
2022-08-29T18:43:20.104Z,100566.81
2022-08-29T18:45:49.099Z,100567.97
2022-08-29T18:48:18.254Z,100568.72
2022-08-29T18:50:48.515Z,100574.03
2022-08-29T18:53:21.344Z,100568.31
2022-08-29T18:55:52.764Z,100567.91
2022-08-29T18:58:22.934Z,100567.50
2022-08-29T19:00:52.407Z,100568.66
2022-08-29T19:03:22.589Z,100575.44
2022-08-29T19:05:54.025Z,100579.63
2022-08-29T19:08:25.647Z,100586.78
2022-08-29T19:10:56.245Z,100575.75
2022-08-29T19:13:26.557Z,100577.06
2022-08-29T19:16:00.723Z,100569.59
2022-08-29T19:18:30.546Z,100562.94
2022-08-29T19:21:06.568Z,100571.03
2022-08-29T19:23:40.983Z,100582.44
2022-08-29T19:26:14.388Z,100576.97
2022-08-29T19:28:44.645Z,100574.94
2022-08-29T19:31:15.132Z,100578.69
2022-08-29T19:33:46.177Z,100588.22
2022-08-29T19:36:15.427Z,100584.28
2022-08-29T19:38:44.883Z,100577.03
2022-08-29T19:41:15.503Z,100587.16
2022-08-29T19:43:44.596Z,100593.09
2022-08-29T19:46:18.319Z,100590.56
2022-08-29T19:48:50.975Z,100594.69
2022-08-29T19:51:25.174Z,100591.31
2022-08-29T19:53:57.115Z,100591.66
2022-08-29T19:56:28.564Z,100588.31
2022-08-29T19:58:59.652Z,100580.44
2022-08-29T20:01:29.239Z,100588.16
2022-08-29T20:03:58.190Z,100591.41
2022-08-29T20:06:27.096Z,100590.91
2022-08-29T20:08:56.854Z,100589.13
2022-08-29T20:11:29.798Z,100586.72
2022-08-29T20:13:59.363Z,100588.44
2022-08-29T20:16:33.864Z,100595.84
2022-08-29T20:19:05.303Z,100591.63
2022-08-29T20:21:35.253Z,100592.13
2022-08-29T20:24:05.441Z,100608.59
2022-08-29T20:26:38.001Z,100595.47
2022-08-29T20:29:11.142Z,100603.66
2022-08-29T20:31:41.133Z,100604.09
2022-08-29T20:34:11.082Z,100594.53
2022-08-29T20:36:57.220Z,100610.06
2022-08-29T20:39:26.837Z,100621.22
2022-08-29T20:42:00.271Z,100628.03
2022-08-29T20:44:34.379Z,100628.59
2022-08-29T20:47:04.173Z,100626.22
2022-08-29T20:49:33.805Z,100625.56
2022-08-29T20:52:04.330Z,100617.16
2022-08-29T20:54:35.339Z,100625.94
2022-08-29T20:57:07.417Z,100628.19
2022-08-29T20:59:39.467Z,100633.38
2022-08-29T21:02:10.535Z,100635.19
2022-08-29T21:04:56.702Z,100633.91
2022-08-29T21:07:25.924Z,100640.38
2022-08-29T21:09:55.865Z,100648.63
2022-08-29T21:12:27.620Z,100656.25
2022-08-29T21:14:56.551Z,100649.06
2022-08-29T21:17:25.230Z,100643.81
2022-08-29T21:19:54.613Z,100646.03
2022-08-29T21:22:25.213Z,100646.53
2022-08-29T21:24:56.446Z,100645.25
2022-08-29T21:27:26.728Z,100648.91
2022-08-29T21:29:56.652Z,100646.00
2022-08-29T21:32:25.986Z,100647.31
2022-08-29T21:34:54.588Z,100646.72
2022-08-29T21:37:23.260Z,100640.78
2022-08-29T21:39:52.111Z,100647.63
2022-08-29T21:42:20.744Z,100642.63
2022-08-29T21:44:50.688Z,100653.44
2022-08-29T21:47:19.524Z,100653.06
2022-08-29T21:49:51.621Z,100653.59
2022-08-29T21:52:21.520Z,100664.72
2022-08-29T21:54:53.901Z,100655.44
2022-08-29T21:57:40.846Z,100654.53
2022-08-29T22:00:14.521Z,100662.06
2022-08-29T22:02:44.503Z,100662.66
2022-08-29T22:05:14.072Z,100659.03
2022-08-29T22:07:44.219Z,100655.00
2022-08-29T22:10:17.730Z,100662.44
2022-08-29T22:12:46.401Z,100666.34
2022-08-29T22:15:34.853Z,100664.25
2022-08-29T22:18:04.763Z,100670.16
2022-08-29T22:20:33.877Z,100674.78
2022-08-29T22:23:03.504Z,100665.78
2022-08-29T22:25:32.363Z,100676.69
2022-08-29T22:28:02.653Z,100669.03
2022-08-29T22:30:33.878Z,100676.97
2022-08-29T22:33:03.814Z,100669.16
2022-08-29T22:35:33.620Z,100675.59
2022-08-29T22:38:02.384Z,100681.72
2022-08-29T22:40:31.733Z,100679.22
2022-08-29T22:43:00.444Z,100671.53
2022-08-29T22:45:29.126Z,100671.56
2022-08-29T22:47:59.320Z,100680.91
2022-08-29T22:50:28.338Z,100668.44
2022-08-29T22:52:59.466Z,100665.09
2022-08-29T22:57:56.537Z,100677.28
2022-08-29T23:00:27.560Z,100661.00
2022-08-29T23:02:57.881Z,100657.38
2022-08-29T23:05:26.937Z,100656.25
2022-08-29T23:07:56.064Z,100660.72
2022-08-29T23:10:24.920Z,100661.44
2022-08-29T23:12:53.759Z,100661.16
2022-08-29T23:15:22.464Z,100662.69
2022-08-29T23:17:51.334Z,100664.38
2022-08-29T23:20:21.544Z,100657.28
2022-08-29T23:22:50.431Z,100661.00
2022-08-29T23:25:20.233Z,100663.97
2022-08-29T23:27:48.904Z,100664.19
2022-08-29T23:30:17.506Z,100665.28
2022-08-29T23:32:46.312Z,100661.34
2022-08-29T23:35:15.152Z,100654.06
2022-08-29T23:37:45.164Z,100651.50
2022-08-29T23:40:14.036Z,100660.47
2022-08-29T23:42:42.760Z,100656.69
2022-08-29T23:45:13.464Z,100647.56
2022-08-29T23:47:42.493Z,100658.16
2022-08-29T23:50:14.230Z,100653.91
2022-08-29T23:52:46.100Z,100652.91
2022-08-29T23:55:17.387Z,100658.88
2022-08-29T23:57:46.612Z,100653.59
